Whaley, Texas
Current Conditions -  °F | °C
As of 4:53 PM on Wednesday 22 Oct 2014 (Local Time) from KTXK Reporting Station
Clear Clear  
Wind Chill: 74°   Ceiling: Unl
Heat Index: 74°   Visibility: 10mi
Dew Point: 50°   Wind: 6mph
Humidity: 43%   Direction: NA
Pressure: 30.1"   Gusts: NA
Location:  33.4799°N, 94.4582°W
Report Text: KTXK 222153Z VRB05KT 10SM CLR 23/10 A3010 RMK AO2 SLP191 T02330100
Loading
Personal Weather Stations






























Interactive Weather Map
Tropical Storm Tracking
New forecast layout! Learn more

10-Day Weather Forecast

Advertisements
Track Severe Weather on mobile